Time;durP1;ratioP1;P1;durP2;ratioP2;P2;SDS_P1;SDS_P2;PMS_P1;PMS_P2;Temp;Humidity;BMP_temperature;BMP_pressure;BME280_temperature;BME280_humidity;BME280_pressure;Samples;Min_cycle;Max_cycle;Signal;HPM_P1;HPM_P2
2024/01/31 00:02:03;;;;;;;0.50;0.50;;;12.10;65.40;;;;;;5091622;28;20032;-68
2024/01/31 00:04:28;;;;;;;0.50;0.50;;;12.10;65.30;;;;;;5091176;28;20111;-68
2024/01/31 00:06:55;;;;;;;0.73;0.70;;;12.10;65.30;;;;;;5091573;28;20040;-68
2024/01/31 00:09:20;;;;;;;0.55;0.55;;;12.00;65.30;;;;;;5091039;28;20024;-67
2024/01/31 00:11:46;;;;;;;0.50;0.50;;;12.10;65.40;;;;;;5091886;28;20464;-68
2024/01/31 00:14:13;;;;;;;0.60;0.60;;;12.00;65.40;;;;;;5091189;28;20103;-68
2024/01/31 00:16:39;;;;;;;0.60;0.60;;;12.00;65.30;;;;;;5091697;28;20024;-67
2024/01/31 00:19:05;;;;;;;0.52;0.52;;;12.00;65.40;;;;;;5090935;28;20081;-67
2024/01/31 00:21:31;;;;;;;0.55;0.55;;;12.00;65.40;;;;;;5091362;28;20043;-67
2024/01/31 00:23:57;;;;;;;0.50;0.50;;;12.00;65.50;;;;;;5091032;28;20020;-68
2024/01/31 00:26:22;;;;;;;0.40;0.40;;;11.90;65.50;;;;;;5078259;28;20041;-68
2024/01/31 00:28:49;;;;;;;0.40;0.40;;;12.00;65.50;;;;;;5072180;28;20096;-68
2024/01/31 00:31:14;;;;;;;0.60;0.60;;;11.90;65.50;;;;;;5074717;28;20052;-68
2024/01/31 00:33:40;;;;;;;0.60;0.60;;;11.90;65.70;;;;;;5074468;28;20040;-68
2024/01/31 00:36:06;;;;;;;0.52;0.52;;;11.90;65.80;;;;;;5074242;28;20052;-68
2024/01/31 00:38:31;;;;;;;0.63;0.63;;;12.00;65.70;;;;;;5074496;28;20035;-68
2024/01/31 00:40:58;;;;;;;0.50;0.50;;;11.90;65.70;;;;;;5074454;28;20032;-68
2024/01/31 00:43:23;;;;;;;0.50;0.50;;;11.90;65.70;;;;;;5074361;28;20024;-68
2024/01/31 00:45:49;;;;;;;0.55;0.55;;;11.90;65.70;;;;;;5074769;28;20029;-68
2024/01/31 00:48:15;;;;;;;0.50;0.50;;;11.90;65.80;;;;;;5074150;28;20060;-68
2024/01/31 00:50:40;;;;;;;0.50;0.50;;;12.00;65.80;;;;;;5074401;28;20040;-68
2024/01/31 00:53:06;;;;;;;0.50;0.50;;;11.90;65.70;;;;;;5074041;28;20036;-68
2024/01/31 00:55:31;;;;;;;0.47;0.47;;;11.90;65.80;;;;;;5074158;28;20033;-68
2024/01/31 00:57:57;;;;;;;0.40;0.40;;;11.90;65.90;;;;;;5073970;28;20038;-68
2024/01/31 01:00:23;;;;;;;0.45;0.45;;;11.80;65.60;;;;;;5074325;28;20460;-68
2024/01/31 01:02:49;;;;;;;0.57;0.57;;;11.80;65.60;;;;;;5073895;28;20028;-68
2024/01/31 01:05:15;;;;;;;0.50;0.50;;;11.70;65.90;;;;;;5073762;28;20075;-68
2024/01/31 01:07:41;;;;;;;0.50;0.50;;;11.60;66.10;;;;;;5073831;28;20064;-69
2024/01/31 01:10:11;;;;;;;0.40;0.40;;;11.60;66.20;;;;;;5073871;28;20036;-69
2024/01/31 01:12:37;;;;;;;0.50;0.50;;;11.60;66.50;;;;;;5074185;28;20027;-70
2024/01/31 01:15:03;;;;;;;0.50;0.50;;;11.60;66.80;;;;;;5073754;28;20021;-71
2024/01/31 01:17:28;;;;;;;0.50;0.50;;;11.50;67.00;;;;;;5073832;28;20032;-70
2024/01/31 01:19:54;;;;;;;0.40;0.40;;;11.50;67.00;;;;;;5074288;28;20131;-71
2024/01/31 01:22:19;;;;;;;0.55;0.55;;;11.50;67.20;;;;;;5074582;28;20372;-71
2024/01/31 01:24:45;;;;;;;0.50;0.50;;;11.50;67.40;;;;;;5073866;28;20040;-70
2024/01/31 01:27:10;;;;;;;0.50;0.50;;;11.50;67.50;;;;;;5093977;28;20485;-70
2024/01/31 01:29:36;;;;;;;0.50;0.50;;;11.50;67.50;;;;;;5094194;28;20031;-70
2024/01/31 01:32:02;;;;;;;0.40;0.40;;;11.40;67.40;;;;;;5093891;28;20442;-70
2024/01/31 01:34:28;;;;;;;0.47;0.47;;;11.40;67.40;;;;;;5094238;28;20032;-71
2024/01/31 01:36:53;;;;;;;0.50;0.50;;;11.30;67.40;;;;;;5094327;28;20038;-71
2024/01/31 01:39:19;;;;;;;0.47;0.47;;;11.30;67.20;;;;;;5093754;28;21159;-70
2024/01/31 01:41:50;;;;;;;0.50;0.50;;;11.10;66.80;;;;;;5094197;28;20060;-70
2024/01/31 01:44:16;;;;;;;0.70;0.70;;;11.00;66.80;;;;;;5093646;28;20491;-71
2024/01/31 01:46:43;;;;;;;0.70;0.70;;;11.00;67.20;;;;;;5093813;28;20024;-70
2024/01/31 01:49:11;;;;;;;0.52;0.52;;;11.00;67.40;;;;;;5093731;28;20028;-71
2024/01/31 01:51:37;;;;;;;0.45;0.45;;;10.90;67.60;;;;;;5094090;28;20035;-71
2024/01/31 01:54:03;;;;;;;0.50;0.50;;;10.90;67.70;;;;;;5093618;28;20386;-70
2024/01/31 01:56:29;;;;;;;0.57;0.57;;;10.90;67.70;;;;;;5094037;28;20024;-70
2024/01/31 01:58:55;;;;;;;0.60;0.60;;;10.90;67.70;;;;;;5093682;28;20036;-71
2024/01/31 02:01:22;;;;;;;0.50;0.50;;;10.80;67.50;;;;;;5093492;28;20064;-71
2024/01/31 02:03:53;;;;;;;3.60;1.02;;;10.80;67.40;;;;;;5093287;28;20024;-71
2024/01/31 02:06:19;;;;;;;0.60;0.60;;;10.80;67.40;;;;;;5093370;28;20127;-70
2024/01/31 02:08:44;;;;;;;0.50;0.50;;;10.70;67.50;;;;;;5092913;28;20070;-70
2024/01/31 02:11:10;;;;;;;0.60;0.60;;;10.70;67.60;;;;;;5093177;28;20105;-70
2024/01/31 02:13:35;;;;;;;0.40;0.40;;;10.70;67.50;;;;;;5093085;28;20491;-70
2024/01/31 02:16:01;;;;;;;0.60;0.60;;;10.70;67.40;;;;;;5093322;28;20032;-70
2024/01/31 02:18:28;;;;;;;0.47;0.47;;;10.70;67.60;;;;;;5092961;28;20395;-70
2024/01/31 02:20:54;;;;;;;0.50;0.50;;;10.70;67.60;;;;;;5093050;28;20486;-70
2024/01/31 02:23:20;;;;;;;0.60;0.60;;;10.70;67.40;;;;;;5092778;28;20020;-69
2024/01/31 02:25:46;;;;;;;0.47;0.47;;;10.70;67.40;;;;;;5085109;28;20057;-69
2024/01/31 02:28:12;;;;;;;0.60;0.60;;;10.70;67.20;;;;;;5072491;28;20039;-69
2024/01/31 02:30:37;;;;;;;0.50;0.50;;;10.60;67.10;;;;;;5072711;28;20044;-69
2024/01/31 02:33:03;;;;;;;0.50;0.50;;;10.60;66.80;;;;;;5072549;28;20384;-69
2024/01/31 02:35:32;;;;;;;0.50;0.50;;;10.60;67.00;;;;;;5092014;28;20040;-68
2024/01/31 02:37:57;;;;;;;0.40;0.40;;;10.50;67.20;;;;;;5074560;28;20364;-69
2024/01/31 02:40:23;;;;;;;0.50;0.50;;;10.50;67.10;;;;;;5092600;28;20035;-68
2024/01/31 02:42:48;;;;;;;0.90;0.73;;;10.50;67.30;;;;;;5092658;28;20028;-69
2024/01/31 02:45:14;;;;;;;0.50;0.50;;;10.50;67.40;;;;;;5092502;28;20027;-69
2024/01/31 02:47:40;;;;;;;0.47;0.47;;;10.50;67.40;;;;;;5092648;28;20059;-69
2024/01/31 02:50:05;;;;;;;0.52;0.52;;;10.50;67.20;;;;;;5092692;28;20487;-69
2024/01/31 02:52:31;;;;;;;0.50;0.50;;;10.50;67.50;;;;;;5091954;28;20028;-68
2024/01/31 02:54:58;;;;;;;0.40;0.40;;;10.60;67.60;;;;;;5092394;28;20466;-68
2024/01/31 02:57:26;;;;;;;0.40;0.40;;;10.60;67.40;;;;;;5092385;28;20028;-69
2024/01/31 02:59:53;;;;;;;0.50;0.50;;;10.50;67.50;;;;;;5092494;28;20090;-69
2024/01/31 03:02:18;;;;;;;0.50;0.50;;;10.60;67.50;;;;;;5092627;28;20036;-68
2024/01/31 03:04:44;;;;;;;0.50;0.50;;;10.50;67.50;;;;;;5073753;28;20499;-69
2024/01/31 03:07:10;;;;;;;0.60;0.60;;;10.50;67.50;;;;;;5074074;28;20540;-68
2024/01/31 03:09:37;;;;;;;0.47;0.47;;;10.60;67.50;;;;;;5092211;28;20479;-68
2024/01/31 03:12:04;;;;;;;0.40;0.40;;;10.60;67.60;;;;;;5092372;28;20114;-68
2024/01/31 03:14:30;;;;;;;0.60;0.60;;;10.50;67.50;;;;;;5092243;28;20028;-69
2024/01/31 03:16:56;;;;;;;0.50;0.50;;;10.50;67.40;;;;;;5092436;28;20329;-68
2024/01/31 03:19:21;;;;;;;0.50;0.50;;;10.40;66.80;;;;;;5092016;28;20024;-68
2024/01/31 03:21:47;;;;;;;0.60;0.60;;;10.40;66.70;;;;;;5092109;28;20039;-68
2024/01/31 03:24:13;;;;;;;0.50;0.50;;;10.30;66.80;;;;;;5092031;28;20077;-68
2024/01/31 03:26:38;;;;;;;0.82;0.82;;;10.20;66.90;;;;;;5092109;28;20032;-68
2024/01/31 03:29:03;;;;;;;0.60;0.60;;;10.10;66.60;;;;;;5091906;28;20035;-68
2024/01/31 03:31:29;;;;;;;0.50;0.50;;;10.10;66.60;;;;;;5092027;28;20402;-68
2024/01/31 03:33:54;;;;;;;0.60;0.60;;;10.10;66.80;;;;;;5091602;28;20039;-68
2024/01/31 03:36:20;;;;;;;0.50;0.50;;;10.00;67.10;;;;;;5091839;28;20044;-68
2024/01/31 03:38:45;;;;;;;0.52;0.52;;;10.00;67.30;;;;;;5092025;28;20036;-68
2024/01/31 03:41:11;;;;;;;0.50;0.50;;;10.00;67.30;;;;;;5073525;28;20032;-68
2024/01/31 03:43:36;;;;;;;0.50;0.50;;;10.00;67.50;;;;;;5091703;28;20028;-69
2024/01/31 03:46:06;;;;;;;0.57;0.57;;;10.00;67.60;;;;;;5091837;28;20036;-68
2024/01/31 03:48:31;;;;;;;0.50;0.50;;;10.00;68.00;;;;;;5091636;28;20483;-68
2024/01/31 03:50:58;;;;;;;0.50;0.50;;;10.00;68.10;;;;;;5091859;28;20040;-68
2024/01/31 03:53:25;;;;;;;0.70;0.70;;;10.10;68.20;;;;;;5091456;28;20027;-69
2024/01/31 03:55:50;;;;;;;0.45;0.45;;;10.10;68.20;;;;;;5092049;28;20032;-68
2024/01/31 03:58:16;;;;;;;0.50;0.50;;;10.10;68.20;;;;;;5091770;28;20531;-68
2024/01/31 04:00:42;;;;;;;0.50;0.50;;;10.20;68.30;;;;;;5073431;28;20058;-69
2024/01/31 04:03:07;;;;;;;0.50;0.50;;;10.20;68.30;;;;;;5091638;28;20031;-69
2024/01/31 04:05:33;;;;;;;0.50;0.50;;;10.20;68.20;;;;;;5095708;28;20537;-68
2024/01/31 04:07:58;;;;;;;0.50;0.50;;;10.20;68.30;;;;;;5095447;28;20406;-68
2024/01/31 04:10:24;;;;;;;0.50;0.50;;;10.20;68.40;;;;;;5095625;28;20046;-68
2024/01/31 04:12:50;;;;;;;0.50;0.50;;;10.30;68.20;;;;;;5077515;28;20028;-68
2024/01/31 04:15:16;;;;;;;0.50;0.50;;;10.20;68.20;;;;;;5077258;28;20031;-68
2024/01/31 04:17:42;;;;;;;0.50;0.50;;;10.20;68.20;;;;;;5095591;28;20024;-69
2024/01/31 04:20:08;;;;;;;0.60;0.60;;;10.20;68.20;;;;;;5077035;28;20024;-68
2024/01/31 04:22:34;;;;;;;0.60;0.60;;;10.20;68.20;;;;;;5095364;28;20039;-68
2024/01/31 04:24:59;;;;;;;0.50;0.50;;;10.20;68.10;;;;;;5093714;28;20028;-68
2024/01/31 04:27:25;;;;;;;0.55;0.55;;;10.20;68.00;;;;;;5075255;28;20068;-68
2024/01/31 04:29:50;;;;;;;0.55;0.55;;;10.20;68.10;;;;;;5075120;28;20043;-68
2024/01/31 04:32:16;;;;;;;0.50;0.50;;;10.20;68.20;;;;;;5074870;28;20112;-68
2024/01/31 04:34:41;;;;;;;0.50;0.50;;;10.20;68.20;;;;;;5075009;28;20032;-69
2024/01/31 04:37:07;;;;;;;0.55;0.55;;;10.20;68.30;;;;;;5056921;28;20037;-68
2024/01/31 04:39:34;;;;;;;0.50;0.50;;;10.20;68.30;;;;;;5074870;28;20056;-68
2024/01/31 04:42:00;;;;;;;0.57;0.57;;;10.20;68.40;;;;;;5075277;28;20107;-68
2024/01/31 04:44:25;;;;;;;0.50;0.50;;;10.20;68.30;;;;;;5075402;28;20111;-68
2024/01/31 04:46:51;;;;;;;0.50;0.50;;;10.20;68.30;;;;;;5075129;28;20264;-68
2024/01/31 04:49:17;;;;;;;0.60;0.60;;;10.20;68.30;;;;;;5074569;28;20043;-68
2024/01/31 04:51:42;;;;;;;0.50;0.50;;;10.20;68.30;;;;;;5074882;28;20039;-68
2024/01/31 04:54:08;;;;;;;0.50;0.50;;;10.30;68.30;;;;;;5056499;28;20081;-69
2024/01/31 04:56:35;;;;;;;0.57;0.57;;;10.20;68.40;;;;;;5074832;28;20429;-68
2024/01/31 04:59:01;;;;;;;0.40;0.40;;;10.20;68.40;;;;;;5094296;28;20036;-67
2024/01/31 05:01:27;;;;;;;0.50;0.50;;;10.20;68.40;;;;;;5094988;28;20036;-68
2024/01/31 05:03:53;;;;;;;0.50;0.50;;;10.20;68.20;;;;;;5094594;28;20024;-68
2024/01/31 05:06:18;;;;;;;0.60;0.60;;;10.20;68.30;;;;;;5093745;28;20047;-68
2024/01/31 05:08:44;;;;;;;0.40;0.40;;;10.20;68.30;;;;;;5094311;28;20016;-68
2024/01/31 05:11:13;;;;;;;0.60;0.60;;;10.20;68.30;;;;;;5094338;28;20028;-68
2024/01/31 05:13:38;;;;;;;0.50;0.50;;;10.20;68.30;;;;;;5092842;28;20386;-68
2024/01/31 05:16:08;;;;;;;0.60;0.60;;;10.20;68.30;;;;;;5094129;28;20051;-68
2024/01/31 05:18:34;;;;;;;0.50;0.50;;;10.20;68.30;;;;;;5094340;28;20099;-68
2024/01/31 05:21:00;;;;;;;0.50;0.50;;;10.20;68.30;;;;;;5094183;28;20070;-69
2024/01/31 05:23:26;;;;;;;0.50;0.50;;;10.20;68.20;;;;;;5091562;28;20513;-69
2024/01/31 05:25:51;;;;;;;0.50;0.50;;;10.20;68.30;;;;;;5093705;28;20099;-70
2024/01/31 05:28:17;;;;;;;0.50;0.50;;;10.20;68.30;;;;;;5093999;28;20111;-69
2024/01/31 05:30:43;;;;;;;0.50;0.50;;;10.20;68.30;;;;;;5093470;28;20051;-69
2024/01/31 05:33:08;;;;;;;0.60;0.60;;;10.20;68.30;;;;;;5094112;28;20489;-69
2024/01/31 05:35:36;;;;;;;0.50;0.50;;;10.20;68.30;;;;;;5090093;28;20035;-69
2024/01/31 05:38:03;;;;;;;0.50;0.50;;;10.20;68.20;;;;;;5093425;28;20043;-69
2024/01/31 05:40:31;;;;;;;0.50;0.50;;;10.20;68.20;;;;;;5093233;28;20095;-69
2024/01/31 05:42:57;;;;;;;0.52;0.52;;;10.10;68.30;;;;;;5093143;28;20020;-69
2024/01/31 05:45:24;;;;;;;0.50;0.50;;;10.10;68.20;;;;;;5090141;28;20107;-69
2024/01/31 05:47:49;;;;;;;0.43;0.43;;;10.00;68.20;;;;;;5093609;28;20487;-68
2024/01/31 05:50:15;;;;;;;0.60;0.60;;;10.00;68.10;;;;;;5093282;28;20027;-69
2024/01/31 05:52:40;;;;;;;0.50;0.50;;;10.00;68.20;;;;;;5093624;28;20305;-69
2024/01/31 05:55:06;;;;;;;0.50;0.50;;;10.00;68.40;;;;;;5089575;28;20016;-69
2024/01/31 05:57:33;;;;;;;0.50;0.50;;;10.00;68.40;;;;;;5093341;28;20044;-69
2024/01/31 05:59:58;;;;;;;0.50;0.50;;;10.00;68.50;;;;;;5092819;28;20384;-69
2024/01/31 06:02:24;;;;;;;0.50;0.50;;;10.00;68.50;;;;;;5092932;28;20026;-69
2024/01/31 06:04:49;;;;;;;0.50;0.50;;;10.00;68.50;;;;;;5089885;28;20589;-69
2024/01/31 06:07:15;;;;;;;0.50;0.50;;;10.00;68.40;;;;;;5093063;28;20089;-69
2024/01/31 06:09:40;;;;;;;0.40;0.40;;;10.00;68.50;;;;;;5093246;28;20141;-69
2024/01/31 06:12:06;;;;;;;0.80;0.80;;;10.00;68.40;;;;;;5093442;28;20040;-69
2024/01/31 06:14:35;;;;;;;0.50;0.50;;;10.10;68.50;;;;;;5089662;28;20023;-69
2024/01/31 06:17:01;;;;;;;0.70;0.70;;;10.10;68.50;;;;;;5093052;28;20433;-69
2024/01/31 06:19:26;;;;;;;0.60;0.60;;;10.10;68.40;;;;;;5092692;28;20062;-69
2024/01/31 06:21:52;;;;;;;0.50;0.50;;;10.10;68.50;;;;;;5092858;28;20028;-69
2024/01/31 06:24:17;;;;;;;0.40;0.40;;;10.10;68.50;;;;;;5089794;28;20036;-69
2024/01/31 06:26:43;;;;;;;0.60;0.60;;;10.10;68.60;;;;;;5091775;28;20054;-69
2024/01/31 06:29:10;;;;;;;0.50;0.50;;;10.10;68.60;;;;;;5092849;28;20038;-69
2024/01/31 06:31:45;;;;;;;0.40;0.40;;;10.10;68.70;;;;;;5093166;28;20046;-68
2024/01/31 06:34:11;;;;;;;0.50;0.50;;;10.10;68.60;;;;;;5092564;28;20433;-68
2024/01/31 06:36:36;;;;;;;0.68;0.68;;;10.10;68.60;;;;;;5093233;28;20031;-68
2024/01/31 06:39:02;;;;;;;0.40;0.40;;;10.10;68.60;;;;;;5092667;28;20379;-68
2024/01/31 06:41:28;;;;;;;0.50;0.50;;;10.10;68.60;;;;;;5074427;28;20024;-68
2024/01/31 06:43:54;;;;;;;0.50;0.50;;;10.10;68.60;;;;;;5092632;28;20053;-68
2024/01/31 06:46:19;;;;;;;0.50;0.50;;;10.10;68.60;;;;;;5092889;28;20028;-68
2024/01/31 06:48:45;;;;;;;0.50;0.50;;;10.20;68.50;;;;;;5092453;28;20141;-68
2024/01/31 06:51:11;;;;;;;0.50;0.50;;;10.20;68.40;;;;;;5091332;28;20032;-68
2024/01/31 06:53:36;;;;;;;1.05;0.85;;;10.10;68.30;;;;;;5092531;28;20316;-68
2024/01/31 06:56:02;;;;;;;0.50;0.50;;;10.10;68.40;;;;;;5092624;28;20047;-68
2024/01/31 06:58:29;;;;;;;0.40;0.40;;;10.10;68.40;;;;;;5092503;28;20020;-68
2024/01/31 07:00:57;;;;;;;0.40;0.40;;;10.10;68.50;;;;;;5092560;28;20380;-68
2024/01/31 07:03:23;;;;;;;0.50;0.50;;;10.10;68.50;;;;;;5081657;28;20031;-68
2024/01/31 07:05:49;;;;;;;0.50;0.50;;;10.20;68.50;;;;;;5092075;28;20032;-68
2024/01/31 07:08:14;;;;;;;0.50;0.50;;;10.20;68.50;;;;;;5092161;28;20065;-67
2024/01/31 07:10:40;;;;;;;0.63;0.63;;;10.20;68.30;;;;;;5092141;28;20456;-68
2024/01/31 07:13:05;;;;;;;0.50;0.50;;;10.20;68.40;;;;;;5091995;28;20032;-68
2024/01/31 07:15:32;;;;;;;0.50;0.50;;;10.20;68.50;;;;;;5092124;28;20093;-68
2024/01/31 07:18:02;;;;;;;0.82;0.82;;;10.20;68.50;;;;;;5091255;28;20028;-68
2024/01/31 07:20:28;;;;;;;0.50;0.50;;;10.20;68.40;;;;;;5092232;28;20062;-68
2024/01/31 07:22:56;;;;;;;0.50;0.50;;;10.20;68.40;;;;;;5090491;28;20028;-68
2024/01/31 07:25:31;;;;;;;0.50;0.50;;;10.20;68.30;;;;;;5092241;28;20028;-68
2024/01/31 07:27:57;;;;;;;0.60;0.60;;;10.20;68.30;;;;;;5073853;28;20020;-68
2024/01/31 07:30:22;;;;;;;0.40;0.40;;;10.20;68.40;;;;;;5092265;28;20085;-68
2024/01/31 07:32:48;;;;;;;0.73;0.73;;;10.20;68.30;;;;;;5091762;28;20032;-68
2024/01/31 07:35:14;;;;;;;0.60;0.60;;;10.20;68.40;;;;;;5091881;28;20120;-68
2024/01/31 07:37:40;;;;;;;0.40;0.40;;;10.20;68.50;;;;;;5091763;28;20375;-68
2024/01/31 07:40:06;;;;;;;0.50;0.50;;;10.20;68.50;;;;;;5092137;28;20028;-69
2024/01/31 07:42:32;;;;;;;0.47;0.47;;;10.20;68.50;;;;;;5092249;28;20076;-69
2024/01/31 07:44:58;;;;;;;0.60;0.60;;;10.30;68.60;;;;;;5091796;28;20142;-69
2024/01/31 07:47:23;;;;;;;0.50;0.50;;;10.20;68.60;;;;;;5091750;28;20032;-69
2024/01/31 07:49:49;;;;;;;0.50;0.50;;;10.30;68.50;;;;;;5091576;28;20047;-69
2024/01/31 07:52:14;;;;;;;0.50;0.50;;;10.20;68.50;;;;;;5091703;28;20514;-69
2024/01/31 07:54:40;;;;;;;0.50;0.50;;;10.30;68.70;;;;;;5073396;28;20036;-69
2024/01/31 07:57:05;;;;;;;0.50;0.50;;;10.30;68.70;;;;;;5092014;28;20082;-69
2024/01/31 07:59:31;;;;;;;0.50;0.50;;;10.30;68.70;;;;;;5091808;28;20042;-69
2024/01/31 08:01:56;;;;;;;0.50;0.50;;;10.30;68.70;;;;;;5087303;28;20099;-69
2024/01/31 08:04:22;;;;;;;0.60;0.60;;;10.30;68.70;;;;;;5072580;28;20127;-69
2024/01/31 08:06:47;;;;;;;0.50;0.50;;;10.30;68.70;;;;;;5084479;28;20364;-69
2024/01/31 08:09:15;;;;;;;0.60;0.60;;;10.40;68.80;;;;;;5073423;28;20032;-69
2024/01/31 08:11:44;;;;;;;0.60;0.60;;;10.40;68.60;;;;;;5091293;28;20027;-69
2024/01/31 08:14:09;;;;;;;0.40;0.40;;;10.40;68.60;;;;;;5074570;28;20029;-69
2024/01/31 08:16:36;;;;;;;0.60;0.60;;;10.40;68.70;;;;;;5075501;28;20039;-69
2024/01/31 08:19:02;;;;;;;0.50;0.50;;;10.40;68.70;;;;;;5057469;28;20428;-69
2024/01/31 08:21:27;;;;;;;0.40;0.40;;;10.40;68.90;;;;;;5073282;28;20032;-69
2024/01/31 08:23:53;;;;;;;0.40;0.40;;;10.50;68.90;;;;;;5079030;28;20024;-69
2024/01/31 08:26:18;;;;;;;0.40;0.40;;;10.50;68.90;;;;;;5087691;28;20115;-69
2024/01/31 08:28:44;;;;;;;0.60;0.60;;;10.50;68.90;;;;;;5089054;28;20384;-69
2024/01/31 08:31:10;;;;;;;0.50;0.50;;;10.50;68.70;;;;;;5080001;28;20070;-69
2024/01/31 08:33:36;;;;;;;0.57;0.57;;;10.50;68.50;;;;;;5091386;28;20039;-69
2024/01/31 08:36:01;;;;;;;0.50;0.50;;;10.50;68.50;;;;;;5090661;28;20032;-69
2024/01/31 08:38:27;;;;;;;1.35;1.25;;;10.50;68.10;;;;;;5070545;28;20041;-69
2024/01/31 08:40:52;;;;;;;0.50;0.50;;;10.50;68.20;;;;;;5074889;28;20035;-69
2024/01/31 08:43:18;;;;;;;0.50;0.50;;;10.50;68.40;;;;;;5082735;28;20541;-69
2024/01/31 08:45:43;;;;;;;0.60;0.60;;;10.50;68.70;;;;;;5071110;28;20072;-69
2024/01/31 08:48:10;;;;;;;0.40;0.40;;;10.60;68.70;;;;;;5070496;28;20048;-69
2024/01/31 08:50:35;;;;;;;0.50;0.50;;;10.60;68.50;;;;;;5092040;28;20028;-68
2024/01/31 08:53:01;;;;;;;0.50;0.50;;;10.60;68.40;;;;;;5094061;28;20537;-67
2024/01/31 08:55:26;;;;;;;0.50;0.50;;;10.60;68.40;;;;;;5093285;28;20033;-68
2024/01/31 08:57:52;;;;;;;0.40;0.40;;;10.60;68.50;;;;;;5083141;28;20039;-68
2024/01/31 09:00:17;;;;;;;0.50;0.50;;;10.70;68.30;;;;;;5086337;28;20025;-68
2024/01/31 09:02:43;;;;;;;0.40;0.40;;;10.60;68.30;;;;;;5092776;28;20012;-68
2024/01/31 09:05:12;;;;;;;0.50;0.50;;;10.60;68.30;;;;;;5083354;28;20071;-68
2024/01/31 09:07:37;;;;;;;0.50;0.50;;;10.70;68.60;;;;;;5088440;28;20028;-68
2024/01/31 09:10:04;;;;;;;0.50;0.50;;;10.70;68.70;;;;;;5086972;28;20029;-67
2024/01/31 09:12:30;;;;;;;0.55;0.55;;;10.70;68.70;;;;;;5075452;28;20451;-68
2024/01/31 09:14:56;;;;;;;0.55;0.55;;;10.70;68.70;;;;;;5089234;28;20068;-68
2024/01/31 09:17:21;;;;;;;0.43;0.43;;;10.70;68.70;;;;;;5083927;28;20060;-68
2024/01/31 09:19:47;;;;;;;0.60;0.60;;;10.70;68.50;;;;;;5073901;28;20391;-68
2024/01/31 09:22:12;;;;;;;0.47;0.47;;;10.70;68.60;;;;;;5076422;28;20518;-68
2024/01/31 09:24:38;;;;;;;0.50;0.50;;;10.80;68.30;;;;;;5084160;28;20107;-67
2024/01/31 09:27:04;;;;;;;0.93;0.85;;;10.80;68.50;;;;;;5093612;28;20028;-68
2024/01/31 09:29:31;;;;;;;0.55;0.55;;;10.80;68.70;;;;;;5092181;28;20032;-67
2024/01/31 09:31:57;;;;;;;0.40;0.40;;;10.80;68.40;;;;;;5093495;28;20417;-67
2024/01/31 09:34:23;;;;;;;0.40;0.40;;;10.80;68.20;;;;;;5086613;28;20107;-68
2024/01/31 09:36:49;;;;;;;0.40;0.40;;;10.80;68.50;;;;;;5092734;28;20020;-67
2024/01/31 09:39:15;;;;;;;0.50;0.50;;;10.80;68.50;;;;;;5092993;28;20070;-68
2024/01/31 09:41:40;;;;;;;0.50;0.50;;;10.80;68.60;;;;;;5087056;28;20024;-67
2024/01/31 09:44:06;;;;;;;0.60;0.60;;;10.90;68.70;;;;;;5083635;28;20027;-67
2024/01/31 09:46:34;;;;;;;0.50;0.50;;;10.90;68.80;;;;;;5093424;28;20498;-67
2024/01/31 09:49:00;;;;;;;0.50;0.50;;;11.00;68.10;;;;;;5089575;28;20035;-67
2024/01/31 09:51:25;;;;;;;0.50;0.50;;;11.00;68.20;;;;;;5092786;28;20036;-67
2024/01/31 09:53:57;;;;;;;0.50;0.50;;;11.00;68.60;;;;;;5083705;28;20032;-68
2024/01/31 09:56:27;;;;;;;0.50;0.50;;;11.10;68.60;;;;;;5089554;28;20494;-67
2024/01/31 09:58:56;;;;;;;0.50;0.50;;;11.20;68.70;;;;;;5090038;28;20515;-67
2024/01/31 10:01:23;;;;;;;0.52;0.52;;;11.20;68.60;;;;;;5103387;28;20043;-69
2024/01/31 10:03:48;;;;;;;0.50;0.50;;;11.30;69.10;;;;;;5089496;28;20093;-69
2024/01/31 10:06:14;;;;;;;0.60;0.60;;;11.40;69.10;;;;;;5093041;28;20032;-69
2024/01/31 10:08:39;;;;;;;0.40;0.40;;;11.50;69.20;;;;;;5091967;28;20024;-69
2024/01/31 10:11:06;;;;;;;0.43;0.43;;;11.50;69.20;;;;;;5092547;28;20068;-69
2024/01/31 10:13:31;;;;;;;0.50;0.50;;;11.60;69.00;;;;;;5089302;28;20078;-69
2024/01/31 10:15:58;;;;;;;0.50;0.50;;;11.70;68.60;;;;;;5090162;28;20032;-69
2024/01/31 10:18:27;;;;;;;0.52;0.52;;;11.70;68.90;;;;;;5089593;28;20012;-69
2024/01/31 10:20:53;;;;;;;0.55;0.55;;;11.80;68.80;;;;;;5092916;28;20471;-69
2024/01/31 10:23:19;;;;;;;0.50;0.50;;;11.80;67.90;;;;;;5083534;28;20390;-69
2024/01/31 10:25:45;;;;;;;0.50;0.50;;;11.80;68.30;;;;;;5084529;28;20032;-69
2024/01/31 10:28:10;;;;;;;2.05;0.77;;;11.90;68.10;;;;;;5083746;28;20046;-69
2024/01/31 10:30:46;;;;;;;0.50;0.50;;;11.90;68.00;;;;;;5063573;28;20502;-69
2024/01/31 10:33:12;;;;;;;0.50;0.50;;;12.00;67.60;;;;;;5084916;28;20085;-69
2024/01/31 10:35:41;;;;;;;0.50;0.50;;;12.00;67.40;;;;;;5081433;28;20028;-68
2024/01/31 10:38:07;;;;;;;0.50;0.50;;;12.00;67.50;;;;;;5087862;28;20513;-68
2024/01/31 10:40:34;;;;;;;0.77;0.77;;;12.00;67.50;;;;;;5080161;28;20070;-69
2024/01/31 10:43:02;;;;;;;0.57;0.57;;;12.10;67.80;;;;;;5082634;28;20503;-68
2024/01/31 10:45:33;;;;;;;1.50;0.82;;;12.10;67.10;;;;;;5080008;28;20436;-69
2024/01/31 10:47:59;;;;;;;0.45;0.45;;;12.10;66.90;;;;;;5076876;28;20024;-68
2024/01/31 10:50:24;;;;;;;0.40;0.40;;;12.10;67.00;;;;;;5071053;28;20348;-69
2024/01/31 10:52:51;;;;;;;0.50;0.50;;;12.20;67.70;;;;;;5082230;28;20032;-68
2024/01/31 10:55:17;;;;;;;0.50;0.50;;;12.30;67.80;;;;;;5077109;28;20483;-69
2024/01/31 10:57:44;;;;;;;0.50;0.50;;;12.40;67.40;;;;;;5080771;28;20096;-68
2024/01/31 11:00:25;;;;;;;0.70;0.70;;;12.40;67.70;;;;;;5083314;28;20028;-69
2024/01/31 11:02:51;;;;;;;0.45;0.45;;;12.50;67.50;;;;;;5083675;28;20379;-68
2024/01/31 11:05:17;;;;;;;0.50;0.50;;;12.50;67.20;;;;;;5082161;28;20068;-68
2024/01/31 11:07:45;;;;;;;0.43;0.43;;;12.50;67.30;;;;;;5084847;28;20060;-69
2024/01/31 11:10:20;;;;;;;0.40;0.40;;;12.50;66.20;;;;;;5085832;28;20027;-67
2024/01/31 11:13:08;;;;;;;0.52;0.52;;;12.50;66.40;;;;;;5085281;28;20020;-66
2024/01/31 11:15:35;;;;;;;0.50;0.50;;;12.50;66.50;;;;;;5074896;28;20032;-66
2024/01/31 11:18:10;;;;;;;0.40;0.40;;;12.50;66.40;;;;;;5072945;28;20033;-67
2024/01/31 11:20:40;;;;;;;0.50;0.50;;;12.60;66.20;;;;;;5081028;28;20555;-67
2024/01/31 11:23:06;;;;;;;0.60;0.60;;;12.50;64.90;;;;;;5078067;28;20419;-67
2024/01/31 11:25:36;;;;;;;0.57;0.57;;;12.50;64.90;;;;;;5081975;28;20032;-67
2024/01/31 11:28:06;;;;;;;0.50;0.50;;;12.50;65.60;;;;;;5085145;28;20023;-66
2024/01/31 11:30:32;;;;;;;0.50;0.50;;;12.60;65.90;;;;;;5079655;28;20032;-66
2024/01/31 11:33:00;;;;;;;0.55;0.55;;;12.60;65.30;;;;;;5078593;28;20099;-66
2024/01/31 11:35:28;;;;;;;0.50;0.50;;;12.60;64.40;;;;;;5075437;28;20033;-67
2024/01/31 11:37:55;;;;;;;0.50;0.50;;;12.60;64.60;;;;;;5091108;28;20040;-67
2024/01/31 11:40:21;;;;;;;0.50;0.50;;;12.70;65.00;;;;;;5091410;28;20103;-66
2024/01/31 11:42:47;;;;;;;0.50;0.50;;;12.80;64.90;;;;;;5091591;28;20115;-66
2024/01/31 11:45:13;;;;;;;0.50;0.50;;;12.80;65.10;;;;;;5089343;28;20481;-67
2024/01/31 11:47:40;;;;;;;0.50;0.50;;;12.90;64.40;;;;;;5074934;28;20028;-67
2024/01/31 11:50:07;;;;;;;0.50;0.50;;;12.90;65.00;;;;;;5071442;28;20490;-66
2024/01/31 11:52:33;;;;;;;0.50;0.50;;;13.00;65.20;;;;;;5071507;28;20024;-67
2024/01/31 11:54:59;;;;;;;0.50;0.50;;;13.20;64.50;;;;;;5084243;28;20043;-66
2024/01/31 11:57:26;;;;;;;0.60;0.60;;;13.20;63.40;;;;;;5091180;28;20354;-66
2024/01/31 11:59:52;;;;;;;0.55;0.55;;;13.20;63.70;;;;;;5090220;28;20024;-66
2024/01/31 12:02:18;;;;;;;0.50;0.50;;;13.30;63.80;;;;;;5091232;28;20511;-67
2024/01/31 12:04:57;;;;;;;0.57;0.57;;;13.30;63.20;;;;;;5078809;28;20094;-67
2024/01/31 12:07:23;;;;;;;0.47;0.47;;;13.30;63.30;;;;;;5077245;28;20357;-67
2024/01/31 12:09:48;;;;;;;0.60;0.60;;;13.40;62.60;;;;;;5074146;28;20047;-67
2024/01/31 12:12:14;;;;;;;0.50;0.50;;;13.40;62.50;;;;;;5051642;28;20033;-67
2024/01/31 12:14:41;;;;;;;0.70;0.70;;;13.40;63.30;;;;;;5077099;28;20463;-68
2024/01/31 12:17:23;;;;;;;0.50;0.50;;;13.50;63.20;;;;;;5056145;28;20487;-67
2024/01/31 12:19:49;;;;;;;0.50;0.50;;;13.70;62.60;;;;;;5084614;28;20028;-67
2024/01/31 12:22:16;;;;;;;0.60;0.60;;;13.70;63.00;;;;;;5083906;28;20029;-67
2024/01/31 12:24:45;;;;;;;0.55;0.55;;;13.70;62.20;;;;;;5084469;28;20039;-68
2024/01/31 12:27:12;;;;;;;0.50;0.50;;;13.80;62.40;;;;;;5094774;28;20056;-67
2024/01/31 12:29:37;;;;;;;0.40;0.40;;;13.80;61.30;;;;;;5084542;28;20141;-67
2024/01/31 12:32:03;;;;;;;0.60;0.60;;;13.90;61.40;;;;;;5082472;28;20028;-67
2024/01/31 12:34:29;;;;;;;0.50;0.50;;;13.90;61.20;;;;;;5073545;28;20043;-66
2024/01/31 12:36:55;;;;;;;0.50;0.50;;;14.00;61.40;;;;;;5081892;28;20028;-67
2024/01/31 12:39:20;;;;;;;0.60;0.60;;;14.00;60.30;;;;;;5083211;28;20032;-67
2024/01/31 12:41:47;;;;;;;0.50;0.50;;;14.00;59.50;;;;;;5087356;28;20031;-67
2024/01/31 12:44:12;;;;;;;0.47;0.47;;;14.00;58.50;;;;;;5081471;28;20375;-67